Startpagina
METAR-TAF:

METAR-TAF

Vliegvelden :

Luchthaven Ouagadougou Internationaal

Ouagadougou, Burkina Faso

breedte: 12-21N, lengte: 001-31W, hoogte: 316 m

Actueel weer

Dit bericht is 1 uur en het 15 minuten geleden gemaakt, om 05:00 UTC
Wind 7 kt uit het zuidzuidwesten
Temperatuur 22°C
Vochtigheid 100%
Druk 1012 hPa
Zicht 10 km of meer
Weinig wolken op 1000 ft

METAR: DFFD 160500Z 20007KT 9999 FEW010 22/22 Q1012 TEMPO BKN010

Tijdstip: 06:15 (06:15 UTC)

Verwachting

Dit bericht is 1 uur en het 15 minuten geleden gemaakt, om 05:00 UTC
Verwachting geldig van 16 om 06 UTC tot 17 om 12 UTC
Wind 8 kt uit het zuidwesten
Zicht 10 km of meer
Verspreide wolken op 2000 ft
Kans 30% :
Tijdelijke
van 16 om 12 UTC tot 16 om 20 UTC
Zicht: 4000 m
Verspreide wolken op 2000 ft
Verspreide wolken op 3300 ft, Cumulonimbus.
onweer, regen

TAF: DFFD 160500Z 1606/1712 22008KT 9999 SCT020 PROB30 TEMPO 1612/1620 4000 TSRA SCT020 SCT033CB

Waarnemingen en weersverwachtingen van meer dan 4000 vliegvelden (METAR en TAF).

De beschikbare stations zijn de gele en rode punten op de kaart.

Ga met uw muis naar het station om de naam te zien.

Klik dan om waarnemingen en weersverwachtingen te zien.

kaart wijzigen: klik op de groene knoppen met een zwart kruis om in te zoomen, op de groene knop met een streepje om uit te zoomen of op de groene pijlen voor aangrenzende kaarten.


METAR-TAF: